Accueil
METAR-TAF:

METAR-TAF

Aéroports :

Fairford, Angleterre

latitude: 51-41N, longitude: 001-47W, altitude: 87 m

Observation

Le bulletin a été fait il y a 19 minutes, à 12:19 UTC
Vent 15 kt de ouest/sud-ouest
Température 18°C
Humidité 64%
Pression 1005 hPa
Visibilité 10 km ou plus
Nuages fragmentés à une hauteur de 3400 ft
Nuages fragmentés à une hauteur de 4400 ft
Ciel couvert à une hauteur de 6500 ft
pluie faible

METAR: EGVA 271219Z AUTO 24015KT 9999 -RA BKN034 BKN044 OVC065 18/11 A2968 RMK AO2 RAB19 SLP053 $

Heure: 13:38 (12:38 UTC)


TAF: absent

Observations et prévisions météorologiques de plus de 4000 aéroports (messages METAR et TAF).

Les stations disponibles sont représentées par des disques jaunes et rouges sur la carte.

Passer la souris dessus pour voir le nom de la station.

Cliquer dessus pour voir les observations et prévisions météorologiques.

Pour changer de carte: cliquez sur les boutons verts avec une croix noire pour zoomer, sur le bouton vert avec un tiret pour effectuer un zoom arrière, ou sur les flèches vertes pour les cartes adjacentes.


METAR-TAF: